sensor_id;sensor_type;location;lat;lon;timestamp;pressure;altitude;pressure_sealevel;temperature;humidity
43161;BME280;40968;52.342;5.528;2022-09-13T00:01:58;101024.53;;;21.74;53.52
43161;BME280;40968;52.342;5.528;2022-09-13T00:04:25;101039.94;;;21.66;53.68
43161;BME280;40968;52.342;5.528;2022-09-13T00:06:51;101043.56;;;21.59;54.26
43161;BME280;40968;52.342;5.528;2022-09-13T00:09:18;101009.13;;;21.34;54.59
43161;BME280;40968;52.342;5.528;2022-09-13T00:11:44;100981.97;;;21.18;54.76
43161;BME280;40968;52.342;5.528;2022-09-13T00:14:11;101033.41;;;21.44;54.61
43161;BME280;40968;52.342;5.528;2022-09-13T00:16:37;100997.88;;;21.06;55.70
43161;BME280;40968;52.342;5.528;2022-09-13T00:19:05;100990.78;;;20.97;55.89
43161;BME280;40968;52.342;5.528;2022-09-13T00:21:32;101035.25;;;21.20;56.09
43161;BME280;40968;52.342;5.528;2022-09-13T00:23:58;101042.59;;;21.20;56.16
43161;BME280;40968;52.342;5.528;2022-09-13T00:26:26;101039.38;;;21.16;56.16
43161;BME280;40968;52.342;5.528;2022-09-13T00:28:54;101033.09;;;21.16;56.32
43161;BME280;40968;52.342;5.528;2022-09-13T00:31:22;101004.03;;;21.00;56.04
43161;BME280;40968;52.342;5.528;2022-09-13T00:33:49;101009.47;;;21.08;56.24
43161;BME280;40968;52.342;5.528;2022-09-13T00:36:17;101018.28;;;21.10;56.25
43161;BME280;40968;52.342;5.528;2022-09-13T00:38:44;100969.31;;;20.70;56.30
43161;BME280;40968;52.342;5.528;2022-09-13T00:41:17;101048.81;;;21.06;56.53
43161;BME280;40968;52.342;5.528;2022-09-13T00:43:47;101027.44;;;20.86;56.88
43161;BME280;40968;52.342;5.528;2022-09-13T00:46:22;100979.72;;;20.59;56.72
43161;BME280;40968;52.342;5.528;2022-09-13T00:48:53;101024.88;;;20.93;57.06
43161;BME280;40968;52.342;5.528;2022-09-13T00:51:22;101034.75;;;20.94;57.26
43161;BME280;40968;52.342;5.528;2022-09-13T00:53:51;100981.03;;;20.71;57.16
43161;BME280;40968;52.342;5.528;2022-09-13T00:56:21;101023.84;;;20.94;57.60
43161;BME280;40968;52.342;5.528;2022-09-13T00:58:52;100968.47;;;20.70;57.78
43161;BME280;40968;52.342;5.528;2022-09-13T01:01:26;101012.41;;;20.98;57.93
43161;BME280;40968;52.342;5.528;2022-09-13T01:03:54;100908.34;;;20.32;57.67
43161;BME280;40968;52.342;5.528;2022-09-13T01:06:25;100990.22;;;20.78;58.25
43161;BME280;40968;52.342;5.528;2022-09-13T01:08:55;100997.88;;;20.75;58.65
43161;BME280;40968;52.342;5.528;2022-09-13T01:11:33;100986.81;;;20.68;58.63
43161;BME280;40968;52.342;5.528;2022-09-13T01:14:05;101019.94;;;20.88;58.76
43161;BME280;40968;52.342;5.528;2022-09-13T01:16:33;101027.97;;;20.90;58.60
43161;BME280;40968;52.342;5.528;2022-09-13T01:18:59;101017.91;;;20.90;58.86
43161;BME280;40968;52.342;5.528;2022-09-13T01:22:05;100944.50;;;20.49;59.27
43161;BME280;40968;52.342;5.528;2022-09-13T01:24:57;100986.16;;;20.74;59.19
43161;BME280;40968;52.342;5.528;2022-09-13T01:27:43;101019.59;;;20.91;59.41
43161;BME280;40968;52.342;5.528;2022-09-13T01:30:19;100986.81;;;20.76;59.66
43161;BME280;40968;52.342;5.528;2022-09-13T01:33:14;101009.91;;;20.89;59.47
43161;BME280;40968;52.342;5.528;2022-09-13T01:35:54;101000.09;;;20.79;59.25
43161;BME280;40968;52.342;5.528;2022-09-13T01:38:41;100961.34;;;20.52;59.34
43161;BME280;40968;52.342;5.528;2022-09-13T01:41:19;101011.44;;;20.83;59.01
43161;BME280;40968;52.342;5.528;2022-09-13T01:43:54;101009.41;;;20.85;59.17
43161;BME280;40968;52.342;5.528;2022-09-13T01:46:25;101007.69;;;20.84;58.82
43161;BME280;40968;52.342;5.528;2022-09-13T01:48:59;101002.06;;;20.85;59.12
43161;BME280;40968;52.342;5.528;2022-09-13T01:51:32;100989.66;;;20.83;59.25
43161;BME280;40968;52.342;5.528;2022-09-13T01:54:12;100966.22;;;20.65;59.89
43161;BME280;40968;52.342;5.528;2022-09-13T01:56:48;100999.59;;;20.76;59.82
43161;BME280;40968;52.342;5.528;2022-09-13T01:59:20;100951.53;;;20.43;59.61
43161;BME280;40968;52.342;5.528;2022-09-13T02:01:50;100999.06;;;20.72;60.00
43161;BME280;40968;52.342;5.528;2022-09-13T02:04:22;101000.28;;;20.69;60.13
43161;BME280;40968;52.342;5.528;2022-09-13T02:06:52;100936.94;;;20.28;60.45
43161;BME280;40968;52.342;5.528;2022-09-13T02:09:25;100932.56;;;20.27;60.04
43161;BME280;40968;52.342;5.528;2022-09-13T02:11:56;100996.72;;;20.61;60.96
43161;BME280;40968;52.342;5.528;2022-09-13T02:14:29;101003.06;;;20.53;60.75
43161;BME280;40968;52.342;5.528;2022-09-13T02:17:02;100999.47;;;20.52;60.85
43161;BME280;40968;52.342;5.528;2022-09-13T02:19:34;100903.06;;;19.91;60.80
43161;BME280;40968;52.342;5.528;2022-09-13T02:22:02;100948.88;;;20.18;60.96
43161;BME280;40968;52.342;5.528;2022-09-13T02:24:32;101010.03;;;20.56;60.87
43161;BME280;40968;52.342;5.528;2022-09-13T02:27:02;101004.56;;;20.56;60.87
43161;BME280;40968;52.342;5.528;2022-09-13T02:29:32;101005.59;;;20.54;61.37
43161;BME280;40968;52.342;5.528;2022-09-13T02:32:06;100973.00;;;20.30;61.68
43161;BME280;40968;52.342;5.528;2022-09-13T02:34:38;100900.53;;;19.81;61.89
43161;BME280;40968;52.342;5.528;2022-09-13T02:37:08;100970.97;;;20.24;61.86
43161;BME280;40968;52.342;5.528;2022-09-13T02:39:42;101006.84;;;20.44;61.96
43161;BME280;40968;52.342;5.528;2022-09-13T02:42:14;101001.72;;;20.41;62.39
43161;BME280;40968;52.342;5.528;2022-09-13T02:44:44;100890.66;;;19.71;62.36
43161;BME280;40968;52.342;5.528;2022-09-13T02:47:32;100878.28;;;19.61;62.45
43161;BME280;40968;52.342;5.528;2022-09-13T02:50:08;101000.56;;;20.35;62.69
43161;BME280;40968;52.342;5.528;2022-09-13T02:52:45;101000.72;;;20.33;62.85
43161;BME280;40968;52.342;5.528;2022-09-13T02:55:17;100997.16;;;20.33;62.20
43161;BME280;40968;52.342;5.528;2022-09-13T02:57:54;100988.16;;;20.32;62.79
43161;BME280;40968;52.342;5.528;2022-09-13T03:00:25;100981.69;;;20.25;62.42
43161;BME280;40968;52.342;5.528;2022-09-13T03:02:55;100952.88;;;19.99;62.81
43161;BME280;40968;52.342;5.528;2022-09-13T03:05:22;100969.38;;;19.98;63.11
43161;BME280;40968;52.342;5.528;2022-09-13T03:07:49;100991.59;;;20.18;62.88
43161;BME280;40968;52.342;5.528;2022-09-13T03:10:16;100991.75;;;20.16;63.24
43161;BME280;40968;52.342;5.528;2022-09-13T03:12:54;100918.03;;;19.70;63.36
43161;BME280;40968;52.342;5.528;2022-09-13T03:15:39;100838.78;;;19.17;63.29
43161;BME280;40968;52.342;5.528;2022-09-13T03:18:18;100967.97;;;19.94;63.38
43161;BME280;40968;52.342;5.528;2022-09-13T03:20:58;100954.41;;;19.85;63.39
43161;BME280;40968;52.342;5.528;2022-09-13T03:23:51;101000.59;;;20.10;63.57
43161;BME280;40968;52.342;5.528;2022-09-13T03:26:26;100972.75;;;19.92;63.45
43161;BME280;40968;52.342;5.528;2022-09-13T03:29:08;100965.09;;;19.87;63.75
43161;BME280;40968;52.342;5.528;2022-09-13T03:31:46;100921.44;;;19.55;63.76
43161;BME280;40968;52.342;5.528;2022-09-13T03:34:23;100986.19;;;19.93;64.38
43161;BME280;40968;52.342;5.528;2022-09-13T03:36:56;100985.16;;;19.94;63.97
43161;BME280;40968;52.342;5.528;2022-09-13T03:39:28;100984.31;;;19.94;64.02
43161;BME280;40968;52.342;5.528;2022-09-13T03:42:02;100988.06;;;19.93;64.15
43161;BME280;40968;52.342;5.528;2022-09-13T03:44:31;100944.72;;;19.66;63.83
43161;BME280;40968;52.342;5.528;2022-09-13T03:47:02;100936.72;;;19.65;63.55
43161;BME280;40968;52.342;5.528;2022-09-13T03:49:33;100951.69;;;19.77;64.26
43161;BME280;40968;52.342;5.528;2022-09-13T03:52:02;100900.75;;;19.38;64.08
43161;BME280;40968;52.342;5.528;2022-09-13T03:54:30;100936.91;;;19.55;64.11
43161;BME280;40968;52.342;5.528;2022-09-13T03:57:11;100930.31;;;19.49;64.35
43161;BME280;40968;52.342;5.528;2022-09-13T03:59:40;100985.69;;;19.81;64.27
43161;BME280;40968;52.342;5.528;2022-09-13T04:02:09;100937.94;;;19.46;64.40
43161;BME280;40968;52.342;5.528;2022-09-13T04:04:38;100990.06;;;19.74;64.24
43161;BME280;40968;52.342;5.528;2022-09-13T04:07:05;100930.97;;;19.35;64.71
43161;BME280;40968;52.342;5.528;2022-09-13T04:09:32;100931.31;;;19.32;64.41
43161;BME280;40968;52.342;5.528;2022-09-13T04:11:59;100970.38;;;19.55;64.42
43161;BME280;40968;52.342;5.528;2022-09-13T04:14:25;100952.03;;;19.41;64.31
43161;BME280;40968;52.342;5.528;2022-09-13T04:16:52;100989.06;;;19.67;64.96
43161;BME280;40968;52.342;5.528;2022-09-13T04:19:19;100946.41;;;19.34;65.26
43161;BME280;40968;52.342;5.528;2022-09-13T04:21:47;101001.97;;;19.65;65.16
43161;BME280;40968;52.342;5.528;2022-09-13T04:24:14;101000.28;;;19.64;65.22
43161;BME280;40968;52.342;5.528;2022-09-13T04:26:41;100961.19;;;19.40;65.22
43161;BME280;40968;52.342;5.528;2022-09-13T04:29:08;100992.78;;;19.66;65.13
43161;BME280;40968;52.342;5.528;2022-09-13T04:31:35;100943.53;;;19.36;64.74
43161;BME280;40968;52.342;5.528;2022-09-13T04:34:02;100948.47;;;19.32;64.85
43161;BME280;40968;52.342;5.528;2022-09-13T04:36:28;100983.13;;;19.47;64.94
43161;BME280;40968;52.342;5.528;2022-09-13T04:38:57;100997.56;;;19.55;64.97
43161;BME280;40968;52.342;5.528;2022-09-13T04:41:24;101000.63;;;19.52;65.06
43161;BME280;40968;52.342;5.528;2022-09-13T04:43:51;100994.84;;;19.47;65.43
43161;BME280;40968;52.342;5.528;2022-09-13T04:46:17;100956.41;;;19.17;65.44
43161;BME280;40968;52.342;5.528;2022-09-13T04:48:47;100895.72;;;18.67;65.61
43161;BME280;40968;52.342;5.528;2022-09-13T04:51:14;101015.53;;;19.40;65.52
43161;BME280;40968;52.342;5.528;2022-09-13T04:53:41;100988.88;;;19.27;65.59
43161;BME280;40968;52.342;5.528;2022-09-13T04:56:09;101007.06;;;19.35;66.02
43161;BME280;40968;52.342;5.528;2022-09-13T04:58:38;100940.25;;;18.91;65.59
43161;BME280;40968;52.342;5.528;2022-09-13T05:01:06;101018.25;;;19.32;66.15
43161;BME280;40968;52.342;5.528;2022-09-13T05:03:33;101014.16;;;19.28;66.42
43161;BME280;40968;52.342;5.528;2022-09-13T05:06:01;101017.91;;;19.27;66.57
43161;BME280;40968;52.342;5.528;2022-09-13T05:08:29;101017.25;;;19.25;66.60
43161;BME280;40968;52.342;5.528;2022-09-13T05:10:55;100930.50;;;18.72;66.56
43161;BME280;40968;52.342;5.528;2022-09-13T05:13:23;100996.47;;;19.07;66.63
43161;BME280;40968;52.342;5.528;2022-09-13T05:15:54;100964.66;;;18.83;67.00
43161;BME280;40968;52.342;5.528;2022-09-13T05:18:21;100994.44;;;19.01;66.80
43161;BME280;40968;52.342;5.528;2022-09-13T05:20:48;100991.03;;;18.99;66.58
43161;BME280;40968;52.342;5.528;2022-09-13T05:23:14;101022.63;;;19.16;67.04
43161;BME280;40968;52.342;5.528;2022-09-13T05:25:41;101029.09;;;19.15;66.74
43161;BME280;40968;52.342;5.528;2022-09-13T05:28:07;101006.63;;;18.97;66.95
43161;BME280;40968;52.342;5.528;2022-09-13T05:30:35;101037.06;;;19.17;67.24
43161;BME280;40968;52.342;5.528;2022-09-13T05:33:01;100993.38;;;18.94;67.35
43161;BME280;40968;52.342;5.528;2022-09-13T05:35:28;100940.81;;;18.60;66.81
43161;BME280;40968;52.342;5.528;2022-09-13T05:37:54;101034.38;;;19.17;67.37
43161;BME280;40968;52.342;5.528;2022-09-13T05:40:21;101036.22;;;19.16;67.46
43161;BME280;40968;52.342;5.528;2022-09-13T05:42:47;101023.44;;;19.09;67.07
43161;BME280;40968;52.342;5.528;2022-09-13T05:45:14;101021.59;;;19.09;67.57
43161;BME280;40968;52.342;5.528;2022-09-13T05:47:42;100934.50;;;18.51;67.37
43161;BME280;40968;52.342;5.528;2022-09-13T05:50:09;101025.34;;;19.08;67.77
43161;BME280;40968;52.342;5.528;2022-09-13T05:52:36;101046.78;;;19.19;67.59
43161;BME280;40968;52.342;5.528;2022-09-13T05:55:03;101007.50;;;18.97;67.59
43161;BME280;40968;52.342;5.528;2022-09-13T05:57:29;100976.84;;;18.79;67.73
43161;BME280;40968;52.342;5.528;2022-09-13T05:59:56;101002.16;;;18.87;67.80
43161;BME280;40968;52.342;5.528;2022-09-13T06:02:22;101029.75;;;19.01;67.44
43161;BME280;40968;52.342;5.528;2022-09-13T06:04:50;101051.34;;;19.19;67.68
43161;BME280;40968;52.342;5.528;2022-09-13T06:07:17;101047.78;;;19.18;68.24
43161;BME280;40968;52.342;5.528;2022-09-13T06:09:43;101043.34;;;19.17;68.31
43161;BME280;40968;52.342;5.528;2022-09-13T06:12:10;101060.53;;;19.18;68.18
43161;BME280;40968;52.342;5.528;2022-09-13T06:14:36;101025.78;;;18.95;68.52
43161;BME280;40968;52.342;5.528;2022-09-13T06:17:03;101061.69;;;19.15;68.86
43161;BME280;40968;52.342;5.528;2022-09-13T06:19:30;101001.59;;;18.76;68.74
43161;BME280;40968;52.342;5.528;2022-09-13T06:21:57;101072.22;;;19.18;69.00
43161;BME280;40968;52.342;5.528;2022-09-13T06:24:24;101047.41;;;19.05;69.54
43161;BME280;40968;52.342;5.528;2022-09-13T06:26:50;101051.78;;;19.06;69.56
43161;BME280;40968;52.342;5.528;2022-09-13T06:29:17;101056.03;;;19.09;69.95
43161;BME280;40968;52.342;5.528;2022-09-13T06:31:44;101051.47;;;19.09;69.77
43161;BME280;40968;52.342;5.528;2022-09-13T06:34:11;101082.94;;;19.28;70.42
43161;BME280;40968;52.342;5.528;2022-09-13T06:36:38;101052.31;;;19.10;70.53
43161;BME280;40968;52.342;5.528;2022-09-13T06:39:06;101089.25;;;19.29;70.74
43161;BME280;40968;52.342;5.528;2022-09-13T06:41:33;101050.84;;;19.15;70.99
43161;BME280;40968;52.342;5.528;2022-09-13T06:44:00;101068.69;;;19.26;71.27
43161;BME280;40968;52.342;5.528;2022-09-13T06:46:29;101056.44;;;19.22;71.10
43161;BME280;40968;52.342;5.528;2022-09-13T06:48:58;101081.78;;;19.39;71.40
43161;BME280;40968;52.342;5.528;2022-09-13T06:51:25;101030.47;;;19.19;71.20
43161;BME280;40968;52.342;5.528;2022-09-13T06:53:53;101073.31;;;19.42;71.00
43161;BME280;40968;52.342;5.528;2022-09-13T06:56:24;100913.44;;;18.45;71.05
43161;BME280;40968;52.342;5.528;2022-09-13T06:58:54;101036.59;;;19.30;71.26
43161;BME280;40968;52.342;5.528;2022-09-13T07:01:23;101073.31;;;19.50;71.13
43161;BME280;40968;52.342;5.528;2022-09-13T07:03:52;101055.47;;;19.39;71.22
43161;BME280;40968;52.342;5.528;2022-09-13T07:06:21;101069.94;;;19.57;71.14
43161;BME280;40968;52.342;5.528;2022-09-13T07:08:49;101015.00;;;19.28;71.00
43161;BME280;40968;52.342;5.528;2022-09-13T07:11:17;101014.00;;;19.29;70.81
43161;BME280;40968;52.342;5.528;2022-09-13T07:13:48;101066.03;;;19.67;70.89
43161;BME280;40968;52.342;5.528;2022-09-13T07:16:15;101037.13;;;19.50;71.05
43161;BME280;40968;52.342;5.528;2022-09-13T07:18:42;101040.03;;;19.57;71.02
43161;BME280;40968;52.342;5.528;2022-09-13T07:21:09;100981.91;;;19.25;70.74
43161;BME280;40968;52.342;5.528;2022-09-13T07:23:37;101054.97;;;19.61;70.67
43161;BME280;40968;52.342;5.528;2022-09-13T07:26:05;101065.19;;;19.75;70.75
43161;BME280;40968;52.342;5.528;2022-09-13T07:28:34;101079.31;;;19.79;70.22
43161;BME280;40968;52.342;5.528;2022-09-13T07:31:07;101074.41;;;19.82;70.13
43161;BME280;40968;52.342;5.528;2022-09-13T07:33:35;101035.28;;;19.59;70.46
43161;BME280;40968;52.342;5.528;2022-09-13T07:36:02;101068.25;;;19.72;69.68
43161;BME280;40968;52.342;5.528;2022-09-13T07:38:32;101011.50;;;19.44;69.54
43161;BME280;40968;52.342;5.528;2022-09-13T07:40:59;101082.22;;;19.94;69.69
43161;BME280;40968;52.342;5.528;2022-09-13T07:43:26;101020.34;;;19.63;69.22
43161;BME280;40968;52.342;5.528;2022-09-13T07:45:56;101049.22;;;19.80;68.47
43161;BME280;40968;52.342;5.528;2022-09-13T07:48:25;101000.59;;;19.61;68.25
43161;BME280;40968;52.342;5.528;2022-09-13T07:50:59;101004.53;;;19.66;67.34
43161;BME280;40968;52.342;5.528;2022-09-13T07:53:26;101046.53;;;19.88;66.74
43161;BME280;40968;52.342;5.528;2022-09-13T07:55:53;101063.53;;;19.99;66.91
43161;BME280;40968;52.342;5.528;2022-09-13T07:58:20;101083.22;;;20.17;67.25
43161;BME280;40968;52.342;5.528;2022-09-13T08:00:46;101090.06;;;20.21;66.55
43161;BME280;40968;52.342;5.528;2022-09-13T08:03:13;101042.78;;;19.90;66.45
43161;BME280;40968;52.342;5.528;2022-09-13T08:05:41;101064.88;;;20.03;66.49
43161;BME280;40968;52.342;5.528;2022-09-13T08:08:07;101100.06;;;20.21;66.33
43161;BME280;40968;52.342;5.528;2022-09-13T08:10:34;101019.31;;;19.72;65.53
43161;BME280;40968;52.342;5.528;2022-09-13T08:13:00;101111.81;;;20.21;65.45
43161;BME280;40968;52.342;5.528;2022-09-13T08:15:27;101102.78;;;20.21;65.19
43161;BME280;40968;52.342;5.528;2022-09-13T08:17:54;101072.38;;;20.01;65.18
43161;BME280;40968;52.342;5.528;2022-09-13T08:20:20;101109.09;;;20.30;65.17
43161;BME280;40968;52.342;5.528;2022-09-13T08:22:48;101060.13;;;20.05;64.72
43161;BME280;40968;52.342;5.528;2022-09-13T08:25:15;101103.28;;;20.41;63.83
43161;BME280;40968;52.342;5.528;2022-09-13T08:27:41;101082.69;;;20.30;63.52
43161;BME280;40968;52.342;5.528;2022-09-13T08:30:09;101116.19;;;20.47;63.66
43161;BME280;40968;52.342;5.528;2022-09-13T08:32:35;101064.34;;;20.16;64.10
43161;BME280;40968;52.342;5.528;2022-09-13T08:35:02;101087.97;;;20.40;64.10
43161;BME280;40968;52.342;5.528;2022-09-13T08:37:30;101089.69;;;20.41;63.82
43161;BME280;40968;52.342;5.528;2022-09-13T08:39:59;101075.88;;;20.34;63.77
43161;BME280;40968;52.342;5.528;2022-09-13T08:45:13;101107.16;;;20.63;63.44
43161;BME280;40968;52.342;5.528;2022-09-13T08:47:43;101123.50;;;20.72;63.10
43161;BME280;40968;52.342;5.528;2022-09-13T08:50:16;101124.16;;;20.65;62.56
43161;BME280;40968;52.342;5.528;2022-09-13T08:52:56;101064.38;;;20.24;61.98
43161;BME280;40968;52.342;5.528;2022-09-13T08:55:34;101122.31;;;20.58;62.44
43161;BME280;40968;52.342;5.528;2022-09-13T08:58:10;101125.53;;;20.61;62.56
43161;BME280;40968;52.342;5.528;2022-09-13T09:00:47;101123.16;;;20.75;62.78
43161;BME280;40968;52.342;5.528;2022-09-13T09:03:24;101058.38;;;20.45;62.16
43161;BME280;40968;52.342;5.528;2022-09-13T09:05:53;101127.03;;;20.80;62.40
43161;BME280;40968;52.342;5.528;2022-09-13T09:08:27;101121.25;;;20.83;62.34
43161;BME280;40968;52.342;5.528;2022-09-13T09:11:02;101071.94;;;20.53;62.37
43161;BME280;40968;52.342;5.528;2022-09-13T09:13:32;101119.69;;;20.89;62.77
43161;BME280;40968;52.342;5.528;2022-09-13T09:16:03;101057.31;;;20.54;62.01
43161;BME280;40968;52.342;5.528;2022-09-13T09:18:33;101123.63;;;20.95;61.71
43161;BME280;40968;52.342;5.528;2022-09-13T09:21:01;101123.63;;;20.95;61.08
43161;BME280;40968;52.342;5.528;2022-09-13T09:23:35;101113.06;;;20.92;61.18
43161;BME280;40968;52.342;5.528;2022-09-13T09:26:14;101128.69;;;20.98;61.48
43161;BME280;40968;52.342;5.528;2022-09-13T09:28:41;101128.19;;;20.94;61.62
43161;BME280;40968;52.342;5.528;2022-09-13T09:31:14;101077.53;;;20.60;61.65
43161;BME280;40968;52.342;5.528;2022-09-13T09:33:51;101127.03;;;20.89;61.65
43161;BME280;40968;52.342;5.528;2022-09-13T09:36:27;101138.13;;;20.87;61.14
43161;BME280;40968;52.342;5.528;2022-09-13T09:38:58;101134.88;;;20.83;61.18
43161;BME280;40968;52.342;5.528;2022-09-13T09:41:27;101133.00;;;20.84;60.69
43161;BME280;40968;52.342;5.528;2022-09-13T09:44:01;101134.84;;;20.92;60.70
43161;BME280;40968;52.342;5.528;2022-09-13T09:46:36;101129.22;;;21.01;60.60
43161;BME280;40968;52.342;5.528;2022-09-13T09:49:09;101105.84;;;21.07;60.46
43161;BME280;40968;52.342;5.528;2022-09-13T09:52:01;101030.91;;;20.72;59.64
43161;BME280;40968;52.342;5.528;2022-09-13T09:54:31;101130.22;;;21.40;58.71
43161;BME280;40968;52.342;5.528;2022-09-13T09:57:00;101110.16;;;21.33;57.78
43161;BME280;40968;52.342;5.528;2022-09-13T09:59:29;101083.25;;;21.30;57.96
43161;BME280;40968;52.342;5.528;2022-09-13T10:01:57;101117.81;;;21.69;57.22
43161;BME280;40968;52.342;5.528;2022-09-13T10:04:24;101064.72;;;21.48;56.46
43161;BME280;40968;52.342;5.528;2022-09-13T10:07:08;101069.81;;;21.60;56.99
43161;BME280;40968;52.342;5.528;2022-09-13T10:09:36;101119.88;;;21.90;55.60
43161;BME280;40968;52.342;5.528;2022-09-13T10:12:05;101109.63;;;21.92;56.11
43161;BME280;40968;52.342;5.528;2022-09-13T10:14:38;101073.75;;;21.80;55.72
43161;BME280;40968;52.342;5.528;2022-09-13T10:17:16;101110.34;;;22.09;55.34
43161;BME280;40968;52.342;5.528;2022-09-13T10:19:52;101077.38;;;21.96;55.02
43161;BME280;40968;52.342;5.528;2022-09-13T10:22:19;101107.91;;;22.14;55.46
43161;BME280;40968;52.342;5.528;2022-09-13T10:24:46;101112.34;;;22.15;56.07
43161;BME280;40968;52.342;5.528;2022-09-13T10:27:23;101113.16;;;22.01;56.20
43161;BME280;40968;52.342;5.528;2022-09-13T10:29:52;101076.09;;;21.83;55.52
43161;BME280;40968;52.342;5.528;2022-09-13T10:32:24;101047.56;;;21.71;54.34
43161;BME280;40968;52.342;5.528;2022-09-13T10:34:51;101079.91;;;21.97;54.39
43161;BME280;40968;52.342;5.528;2022-09-13T10:37:20;101118.25;;;22.42;54.29
43161;BME280;40968;52.342;5.528;2022-09-13T10:39:52;101120.38;;;22.32;53.94
43161;BME280;40968;52.342;5.528;2022-09-13T10:42:24;101118.38;;;22.26;54.48
43161;BME280;40968;52.342;5.528;2022-09-13T10:44:53;101043.03;;;21.86;53.86
43161;BME280;40968;52.342;5.528;2022-09-13T10:47:23;101008.94;;;21.82;53.45
43161;BME280;40968;52.342;5.528;2022-09-13T10:49:51;101121.88;;;22.73;52.73
43161;BME280;40968;52.342;5.528;2022-09-13T10:52:27;101124.63;;;22.88;50.54
43161;BME280;40968;52.342;5.528;2022-09-13T10:54:55;101012.97;;;22.25;51.41
43161;BME280;40968;52.342;5.528;2022-09-13T10:57:42;101015.13;;;22.29;51.50
43161;BME280;40968;52.342;5.528;2022-09-13T11:00:10;101121.13;;;22.94;50.98
43161;BME280;40968;52.342;5.528;2022-09-13T11:02:48;101106.81;;;22.92;50.39
43161;BME280;40968;52.342;5.528;2022-09-13T11:05:21;101131.78;;;23.18;50.06
43161;BME280;40968;52.342;5.528;2022-09-13T11:08:14;101122.06;;;23.31;50.40
43161;BME280;40968;52.342;5.528;2022-09-13T11:10:53;101092.63;;;23.33;49.92
43161;BME280;40968;52.342;5.528;2022-09-13T11:13:34;101093.03;;;23.30;49.43
43161;BME280;40968;52.342;5.528;2022-09-13T11:16:22;101121.03;;;23.17;49.25
43161;BME280;40968;52.342;5.528;2022-09-13T11:19:01;101094.16;;;23.06;49.90
43161;BME280;40968;52.342;5.528;2022-09-13T11:21:42;101108.97;;;23.26;49.78
43161;BME280;40968;52.342;5.528;2022-09-13T11:24:21;101104.78;;;23.45;50.09
43161;BME280;40968;52.342;5.528;2022-09-13T11:26:59;101112.78;;;23.47;48.83
43161;BME280;40968;52.342;5.528;2022-09-13T11:29:38;101058.47;;;23.07;49.01
43161;BME280;40968;52.342;5.528;2022-09-13T11:32:18;101105.63;;;23.46;49.32
43161;BME280;40968;52.342;5.528;2022-09-13T11:35:05;101064.53;;;23.39;48.61
43161;BME280;40968;52.342;5.528;2022-09-13T11:37:42;101014.41;;;23.32;48.10
43161;BME280;40968;52.342;5.528;2022-09-13T11:40:24;101074.66;;;23.82;47.45
43161;BME280;40968;52.342;5.528;2022-09-13T11:43:04;101070.06;;;23.89;48.03
43161;BME280;40968;52.342;5.528;2022-09-13T11:45:39;101083.28;;;23.85;46.51
43161;BME280;40968;52.342;5.528;2022-09-13T11:48:26;101090.56;;;23.93;46.95
43161;BME280;40968;52.342;5.528;2022-09-13T11:51:02;101092.81;;;24.11;45.78
43161;BME280;40968;52.342;5.528;2022-09-13T11:53:41;101069.97;;;23.97;45.91
43161;BME280;40968;52.342;5.528;2022-09-13T11:56:20;101093.00;;;24.31;45.92
43161;BME280;40968;52.342;5.528;2022-09-13T11:58:52;101076.44;;;24.46;45.44
43161;BME280;40968;52.342;5.528;2022-09-13T12:01:25;101058.53;;;24.44;44.22
43161;BME280;40968;52.342;5.528;2022-09-13T12:03:57;101086.72;;;24.66;44.35
43161;BME280;40968;52.342;5.528;2022-09-13T12:06:29;101063.59;;;24.75;44.60
43161;BME280;40968;52.342;5.528;2022-09-13T12:09:00;101084.81;;;25.08;43.37
43161;BME280;40968;52.342;5.528;2022-09-13T12:11:31;101083.81;;;25.23;43.31
43161;BME280;40968;52.342;5.528;2022-09-13T12:14:00;101087.09;;;25.46;42.30
43161;BME280;40968;52.342;5.528;2022-09-13T12:16:31;101082.50;;;25.60;41.81
43161;BME280;40968;52.342;5.528;2022-09-13T12:19:01;101043.84;;;25.48;41.14
43161;BME280;40968;52.342;5.528;2022-09-13T12:21:30;101083.97;;;25.70;41.15
43161;BME280;40968;52.342;5.528;2022-09-13T12:24:03;101077.22;;;25.72;39.92
43161;BME280;40968;52.342;5.528;2022-09-13T12:26:36;101034.56;;;25.56;40.45
43161;BME280;40968;52.342;5.528;2022-09-13T12:29:10;101072.63;;;25.86;39.95
43161;BME280;40968;52.342;5.528;2022-09-13T12:31:40;101045.13;;;25.73;40.04
43161;BME280;40968;52.342;5.528;2022-09-13T12:34:09;101079.16;;;25.92;40.42
43161;BME280;40968;52.342;5.528;2022-09-13T12:37:02;101061.19;;;25.82;40.60
43161;BME280;40968;52.342;5.528;2022-09-13T12:39:42;101078.97;;;26.13;40.95
43161;BME280;40968;52.342;5.528;2022-09-13T12:42:30;101092.25;;;26.50;39.02
43161;BME280;40968;52.342;5.528;2022-09-13T12:45:14;101098.34;;;26.72;38.66
43161;BME280;40968;52.342;5.528;2022-09-13T12:48:13;101085.88;;;26.63;37.23
43161;BME280;40968;52.342;5.528;2022-09-13T12:50:50;101061.63;;;26.40;37.43
43161;BME280;40968;52.342;5.528;2022-09-13T12:53:36;101042.63;;;26.25;37.82
43161;BME280;40968;52.342;5.528;2022-09-13T12:56:23;101095.66;;;26.45;37.97
43161;BME280;40968;52.342;5.528;2022-09-13T12:59:07;101058.88;;;26.26;37.50
43161;BME280;40968;52.342;5.528;2022-09-13T13:01:36;101085.25;;;26.61;37.65
43161;BME280;40968;52.342;5.528;2022-09-13T13:04:12;101096.16;;;27.01;37.35
43161;BME280;40968;52.342;5.528;2022-09-13T13:06:48;101097.41;;;27.12;36.50
43161;BME280;40968;52.342;5.528;2022-09-13T13:09:27;101036.59;;;26.81;36.17
43161;BME280;40968;52.342;5.528;2022-09-13T13:11:58;101099.66;;;27.22;36.20
43161;BME280;40968;52.342;5.528;2022-09-13T13:14:28;101076.88;;;27.08;36.21
43161;BME280;40968;52.342;5.528;2022-09-13T13:19:57;101062.91;;;27.55;33.13